Time;durP1;ratioP1;P1;durP2;ratioP2;P2;SDS_P1;SDS_P2;PMS_P1;PMS_P2;Temp;Humidity;BMP_temperature;BMP_pressure;BME280_temperature;BME280_humidity;BME280_pressure;Samples;Min_cycle;Max_cycle;Signal;HPM_P1;HPM_P2
2021/09/25 00:02:13;;;;;;;12.47;9.30;;;14.20;99.90;;;;;;5023650;28;20440;-79
2021/09/25 00:04:40;;;;;;;15.43;10.93;;;14.10;99.90;;;;;;5023390;28;20478;-79
2021/09/25 00:07:07;;;;;;;12.40;9.20;;;14.10;99.90;;;;;;5023115;28;20421;-79
2021/09/25 00:09:34;;;;;;;12.03;10.07;;;14.00;99.90;;;;;;5022927;28;20558;-79
2021/09/25 00:12:02;;;;;;;10.70;9.20;;;13.90;99.90;;;;;;5017772;28;20429;-79
2021/09/25 00:14:29;;;;;;;12.27;9.27;;;14.00;99.90;;;;;;5023556;28;20488;-79
2021/09/25 00:16:56;;;;;;;11.83;9.17;;;14.00;99.90;;;;;;5022942;28;20971;-79
2021/09/25 00:19:22;;;;;;;11.57;8.17;;;14.00;99.90;;;;;;5023000;28;20501;-79
2021/09/25 00:21:49;;;;;;;11.90;9.50;;;14.00;99.90;;;;;;5023116;28;20516;-79
2021/09/25 00:24:16;;;;;;;12.53;9.37;;;13.90;99.90;;;;;;5023331;28;20450;-79
2021/09/25 00:26:43;;;;;;;12.00;8.70;;;14.00;99.90;;;;;;5022704;28;20909;-79
2021/09/25 00:29:11;;;;;;;11.13;7.90;;;14.00;99.90;;;;;;5018390;28;20452;-79
2021/09/25 00:31:38;;;;;;;12.97;8.40;;;14.00;99.90;;;;;;5022613;28;20423;-78
2021/09/25 00:34:05;;;;;;;10.60;8.40;;;14.00;99.90;;;;;;5022516;28;20457;-79
2021/09/25 00:36:32;;;;;;;12.87;8.80;;;14.00;99.90;;;;;;5024656;28;20590;-80
2021/09/25 00:38:58;;;;;;;12.97;9.80;;;14.00;99.90;;;;;;5024843;28;20554;-80
2021/09/25 00:41:25;;;;;;;11.90;8.97;;;13.90;99.90;;;;;;5019350;28;20429;-79
2021/09/25 00:43:53;;;;;;;12.20;9.27;;;13.80;99.90;;;;;;5020024;28;20425;-79
2021/09/25 00:46:22;;;;;;;13.13;8.80;;;13.90;99.90;;;;;;5023809;28;20449;-79
2021/09/25 00:48:50;;;;;;;13.23;8.70;;;13.80;99.90;;;;;;5023988;28;20443;-79
2021/09/25 00:51:17;;;;;;;12.00;9.27;;;13.80;99.90;;;;;;5023350;28;20458;-79
2021/09/25 00:53:45;;;;;;;10.37;8.20;;;13.60;99.90;;;;;;5024002;28;20489;-78
2021/09/25 00:56:12;;;;;;;12.33;9.30;;;13.70;99.90;;;;;;5022133;28;20448;-79
2021/09/25 00:58:40;;;;;;;13.37;8.77;;;13.70;99.90;;;;;;5024157;28;20544;-79
2021/09/25 01:01:08;;;;;;;12.77;9.27;;;13.80;99.90;;;;;;5022324;28;20437;-80
2021/09/25 01:03:36;;;;;;;14.03;9.23;;;14.00;99.90;;;;;;5023458;28;20439;-79
2021/09/25 01:06:03;;;;;;;11.67;7.73;;;14.10;99.90;;;;;;5022600;28;20490;-79
2021/09/25 01:08:30;;;;;;;8.37;7.40;;;14.10;99.90;;;;;;5022995;28;20516;-78
2021/09/25 01:10:57;;;;;;;11.20;8.27;;;14.10;99.90;;;;;;5022299;28;20549;-78
2021/09/25 01:13:25;;;;;;;10.37;7.77;;;14.10;99.90;;;;;;5023367;28;20467;-79
2021/09/25 01:15:52;;;;;;;11.47;8.23;;;14.00;99.90;;;;;;5022680;28;20502;-80
2021/09/25 01:18:19;;;;;;;11.63;7.93;;;14.10;99.90;;;;;;5008913;28;20513;-79
2021/09/25 01:20:47;;;;;;;10.70;8.10;;;14.10;99.90;;;;;;5026022;28;20429;-79
2021/09/25 01:23:15;;;;;;;12.00;9.00;;;14.10;99.90;;;;;;5029290;28;20457;-78
2021/09/25 01:25:42;;;;;;;14.03;9.30;;;14.00;99.90;;;;;;5028841;28;20544;-79
2021/09/25 01:28:09;;;;;;;10.27;8.47;;;13.90;99.90;;;;;;5030188;28;20461;-79
2021/09/25 01:30:36;;;;;;;10.90;8.43;;;13.90;99.90;;;;;;5026483;28;20452;-79
2021/09/25 01:33:03;;;;;;;10.43;8.60;;;14.00;99.90;;;;;;5028395;28;20482;-79
2021/09/25 01:35:31;;;;;;;10.90;8.07;;;13.90;99.90;;;;;;5029374;28;20514;-80
2021/09/25 01:37:58;;;;;;;12.23;7.87;;;13.90;99.90;;;;;;5029326;28;20421;-78
2021/09/25 01:40:26;;;;;;;12.20;8.70;;;14.00;99.90;;;;;;5029758;28;20461;-80
2021/09/25 01:42:54;;;;;;;9.90;8.10;;;14.00;99.90;;;;;;5029193;28;20425;-79
2021/09/25 01:45:21;;;;;;;10.50;7.50;;;14.00;99.90;;;;;;5028348;28;20445;-80
2021/09/25 01:47:48;;;;;;;11.23;8.30;;;13.90;99.90;;;;;;5030668;28;20438;-79
2021/09/25 01:50:16;;;;;;;10.13;7.30;;;14.00;99.90;;;;;;5023922;28;20429;-79
2021/09/25 01:52:43;;;;;;;13.90;8.10;;;14.10;99.90;;;;;;5029536;28;20458;-79
2021/09/25 01:55:11;;;;;;;11.30;8.00;;;14.10;99.90;;;;;;5029993;28;20957;-79
2021/09/25 01:57:40;;;;;;;13.17;7.73;;;14.10;99.90;;;;;;5030457;28;20809;-79
2021/09/25 02:00:08;;;;;;;10.17;6.80;;;14.10;99.90;;;;;;5029306;28;20460;-80
2021/09/25 02:02:36;;;;;;;11.73;8.03;;;14.00;99.90;;;;;;5028782;28;20476;-80
2021/09/25 02:05:04;;;;;;;10.93;8.33;;;14.10;99.90;;;;;;5029304;28;20552;-79
2021/09/25 02:07:30;;;;;;;10.67;8.03;;;14.00;99.90;;;;;;5030872;28;20436;-79
2021/09/25 02:09:57;;;;;;;9.27;7.30;;;14.00;99.90;;;;;;5028777;28;20456;-80
2021/09/25 02:12:24;;;;;;;9.90;6.77;;;13.90;99.90;;;;;;5029535;28;20436;-79
2021/09/25 02:14:52;;;;;;;10.00;7.00;;;13.90;99.90;;;;;;5030369;28;20557;-79
2021/09/25 02:17:21;;;;;;;10.93;8.23;;;13.90;99.90;;;;;;5030440;28;20463;-80
2021/09/25 02:19:48;;;;;;;10.60;7.63;;;13.80;99.90;;;;;;5028176;28;20457;-79
2021/09/25 02:22:15;;;;;;;9.83;7.10;;;13.70;99.90;;;;;;5029608;28;20465;-79
2021/09/25 02:24:42;;;;;;;10.33;8.10;;;13.70;99.90;;;;;;5030226;28;20912;-79
2021/09/25 02:27:09;;;;;;;8.63;7.13;;;13.80;99.90;;;;;;5029154;28;20532;-79
2021/09/25 02:29:36;;;;;;;9.93;7.40;;;13.80;99.90;;;;;;5030142;28;20937;-79
2021/09/25 02:32:05;;;;;;;10.23;7.93;;;13.80;99.90;;;;;;5027060;28;20523;-79
2021/09/25 02:34:31;;;;;;;9.50;6.97;;;13.80;99.90;;;;;;5024888;28;20433;-79
2021/09/25 02:36:58;;;;;;;11.20;8.10;;;13.80;99.90;;;;;;5026463;28;20456;-80
2021/09/25 02:39:26;;;;;;;9.60;7.70;;;13.70;99.90;;;;;;5026259;28;20549;-79
2021/09/25 02:41:53;;;;;;;11.10;7.70;;;13.60;99.90;;;;;;5025681;28;20429;-79
2021/09/25 02:44:20;;;;;;;8.90;6.77;;;13.60;99.90;;;;;;5026083;28;20590;-79
2021/09/25 02:46:48;;;;;;;9.90;7.60;;;13.60;99.90;;;;;;5026207;28;20425;-79
2021/09/25 02:49:17;;;;;;;12.33;8.20;;;13.70;99.90;;;;;;5025605;28;20771;-80
2021/09/25 02:51:43;;;;;;;10.87;7.37;;;13.70;99.90;;;;;;5025136;28;20845;-80
2021/09/25 02:54:10;;;;;;;9.10;6.77;;;13.80;99.90;;;;;;5026289;28;20460;-80
2021/09/25 02:56:37;;;;;;;10.73;8.23;;;13.90;99.90;;;;;;5026158;28;20540;-80
2021/09/25 02:59:05;;;;;;;9.70;7.10;;;13.80;99.90;;;;;;5024091;28;20932;-79
2021/09/25 03:01:32;;;;;;;9.17;7.37;;;13.70;99.90;;;;;;5027334;28;20424;-80
2021/09/25 03:03:59;;;;;;;9.70;6.50;;;13.70;99.90;;;;;;5026837;28;20522;-79
2021/09/25 03:06:28;;;;;;;11.53;7.87;;;13.50;99.90;;;;;;5027889;28;20510;-80
2021/09/25 03:08:55;;;;;;;12.00;8.47;;;13.30;99.90;;;;;;5019555;28;20505;-80
2021/09/25 03:11:21;;;;;;;11.57;8.00;;;13.20;99.90;;;;;;5012297;28;20451;-81
2021/09/25 03:13:48;;;;;;;13.60;7.97;;;13.10;99.90;;;;;;5025623;28;20440;-80
2021/09/25 03:16:15;;;;;;;11.40;7.90;;;13.10;99.90;;;;;;5024443;28;20545;-80
2021/09/25 03:18:42;;;;;;;8.30;6.80;;;13.10;99.90;;;;;;5025793;28;20541;-80
2021/09/25 03:21:09;;;;;;;10.03;7.30;;;13.20;99.90;;;;;;5025754;28;20489;-80
2021/09/25 03:23:37;;;;;;;11.03;7.97;;;13.20;99.90;;;;;;5025470;28;20457;-80
2021/09/25 03:26:04;;;;;;;10.77;6.87;;;13.30;99.90;;;;;;5019322;28;20816;-80
2021/09/25 03:28:31;;;;;;;9.97;7.03;;;13.10;99.90;;;;;;5026994;28;20409;-79
2021/09/25 03:30:57;;;;;;;9.23;7.13;;;13.00;99.90;;;;;;5028482;28;20497;-81
2021/09/25 03:33:24;;;;;;;9.73;7.40;;;13.10;99.90;;;;;;5021557;28;20459;-81
2021/09/25 03:35:51;;;;;;;11.07;7.23;;;13.00;99.90;;;;;;5027071;28;20476;-80
2021/09/25 03:38:21;;;;;;;10.43;7.57;;;13.00;99.90;;;;;;5027385;28;20452;-80
2021/09/25 03:40:50;;;;;;;10.40;7.57;;;13.00;99.90;;;;;;5020804;28;20467;-79
2021/09/25 03:43:17;;;;;;;9.33;6.83;;;13.10;99.90;;;;;;5024019;28;20483;-79
2021/09/25 03:45:44;;;;;;;9.30;7.20;;;13.10;99.90;;;;;;5023670;28;20478;-79
2021/09/25 03:48:11;;;;;;;8.93;6.90;;;13.10;99.90;;;;;;5024570;28;20425;-80
2021/09/25 03:50:38;;;;;;;9.40;7.00;;;13.10;99.90;;;;;;5012270;28;20454;-80
2021/09/25 03:53:05;;;;;;;11.33;7.97;;;13.10;99.90;;;;;;5023931;28;20421;-80
2021/09/25 03:55:32;;;;;;;10.50;8.07;;;13.10;99.90;;;;;;5025378;28;20509;-80
2021/09/25 03:58:00;;;;;;;11.60;7.80;;;13.10;99.90;;;;;;5026188;28;20792;-80
2021/09/25 04:00:27;;;;;;;9.87;6.90;;;13.10;99.90;;;;;;5024737;28;20461;-80
2021/09/25 04:02:55;;;;;;;10.00;8.00;;;13.10;99.90;;;;;;5024042;28;20425;-80
2021/09/25 04:05:22;;;;;;;10.17;8.10;;;13.00;99.90;;;;;;5024224;28;20486;-80
2021/09/25 04:07:49;;;;;;;16.03;8.00;;;13.00;99.90;;;;;;5025086;28;20944;-80
2021/09/25 04:10:17;;;;;;;10.73;8.20;;;13.00;99.90;;;;;;5069452;23;20502;-83
2021/09/25 04:12:44;;;;;;;10.17;7.53;;;13.00;99.90;;;;;;5064311;28;20548;-82
2021/09/25 04:15:12;;;;;;;13.00;7.50;;;13.00;99.90;;;;;;5064044;28;20535;-81
2021/09/25 04:17:39;;;;;;;9.77;7.80;;;13.10;99.90;;;;;;5044884;28;20529;-83
2021/09/25 04:20:08;;;;;;;10.73;7.27;;;13.10;99.90;;;;;;5052903;28;20534;-82
2021/09/25 04:22:35;;;;;;;11.60;7.40;;;13.20;99.90;;;;;;5049502;28;20431;-82
2021/09/25 04:25:02;;;;;;;12.43;7.87;;;13.20;99.90;;;;;;5044880;28;20428;-82
2021/09/25 04:27:30;;;;;;;10.60;7.63;;;13.20;99.90;;;;;;5047434;28;20432;-83
2021/09/25 04:29:58;;;;;;;11.43;8.00;;;13.20;99.90;;;;;;5043436;28;20444;-82
2021/09/25 04:32:27;;;;;;;12.80;7.80;;;13.20;99.90;;;;;;5052328;28;20493;-82
2021/09/25 04:34:54;;;;;;;10.70;7.50;;;13.20;99.90;;;;;;5044761;28;20491;-82
2021/09/25 04:37:20;;;;;;;13.00;8.20;;;13.20;99.90;;;;;;5045407;28;20481;-81
2021/09/25 04:39:47;;;;;;;11.93;8.13;;;13.20;99.90;;;;;;5045593;28;20516;-82
2021/09/25 04:42:14;;;;;;;14.00;7.77;;;13.10;99.90;;;;;;5052964;28;20424;-81
2021/09/25 04:44:41;;;;;;;9.70;7.20;;;13.00;99.90;;;;;;5061033;28;20837;-82
2021/09/25 04:47:08;;;;;;;10.20;7.70;;;12.90;99.90;;;;;;5041303;28;20467;-82
2021/09/25 04:49:36;;;;;;;10.00;7.97;;;12.80;99.90;;;;;;5039328;28;20475;-82
2021/09/25 04:52:04;;;;;;;11.80;8.07;;;12.80;99.90;;;;;;5061394;28;20431;-82
2021/09/25 04:54:31;;;;;;;11.07;7.80;;;12.60;99.90;;;;;;5048295;28;20449;-82
2021/09/25 04:56:57;;;;;;;11.57;8.60;;;12.60;99.90;;;;;;5045449;28;20515;-82
2021/09/25 04:59:24;;;;;;;10.60;7.63;;;12.60;99.90;;;;;;5043663;28;20827;-81
2021/09/25 05:01:51;;;;;;;10.40;7.63;;;12.80;99.90;;;;;;5044673;28;20460;-82
2021/09/25 05:04:18;;;;;;;9.77;7.03;;;12.80;99.90;;;;;;5049287;28;20500;-82
2021/09/25 05:06:46;;;;;;;10.70;7.60;;;12.90;99.90;;;;;;5045151;28;20935;-82
2021/09/25 05:09:13;;;;;;;11.63;8.03;;;13.00;99.90;;;;;;5049301;28;20871;-82
2021/09/25 05:11:40;;;;;;;12.03;7.93;;;13.00;99.90;;;;;;5068567;28;20475;-83
2021/09/25 05:14:07;;;;;;;11.63;7.80;;;13.00;99.90;;;;;;5080453;28;20423;-82
2021/09/25 05:16:33;;;;;;;9.97;7.90;;;13.00;99.90;;;;;;5063965;28;20473;-81
2021/09/25 05:19:00;;;;;;;10.87;7.00;;;13.00;99.90;;;;;;5064343;28;20420;-82
2021/09/25 05:21:27;;;;;;;13.50;8.30;;;13.00;99.90;;;;;;5074300;28;20479;-81
2021/09/25 05:23:55;;;;;;;8.80;6.57;;;13.00;99.90;;;;;;5068015;28;20462;-82
2021/09/25 05:26:22;;;;;;;7.97;6.30;;;13.00;99.90;;;;;;5064764;28;20496;-82
2021/09/25 05:28:49;;;;;;;8.87;6.73;;;13.00;99.90;;;;;;5063864;28;20438;-82
2021/09/25 05:31:16;;;;;;;9.37;7.13;;;12.90;99.90;;;;;;5063950;28;20419;-82
2021/09/25 05:33:43;;;;;;;9.60;6.60;;;12.80;99.90;;;;;;5064201;28;20911;-81
2021/09/25 05:36:10;;;;;;;13.40;8.10;;;12.70;99.90;;;;;;5066769;28;20452;-83
2021/09/25 05:38:36;;;;;;;9.33;6.87;;;12.70;99.90;;;;;;5069299;28;20423;-83
2021/09/25 05:41:05;;;;;;;11.70;7.83;;;12.60;99.90;;;;;;5070580;28;20835;-83
2021/09/25 05:43:32;;;;;;;12.53;7.47;;;12.50;99.90;;;;;;5069826;28;20423;-82
2021/09/25 05:45:58;;;;;;;9.93;7.20;;;12.50;99.90;;;;;;5069762;28;20424;-83
2021/09/25 05:48:26;;;;;;;11.63;7.43;;;12.60;99.90;;;;;;5074007;28;20456;-81
2021/09/25 05:50:53;;;;;;;8.73;6.53;;;12.50;99.90;;;;;;5077366;28;20434;-83
2021/09/25 05:53:19;;;;;;;9.90;6.93;;;12.60;99.90;;;;;;5086279;28;20805;-83
2021/09/25 05:55:46;;;;;;;9.40;6.57;;;12.50;99.90;;;;;;5068327;28;20515;-83
2021/09/25 05:58:14;;;;;;;10.43;6.87;;;12.70;99.90;;;;;;5065158;28;20476;-82
2021/09/25 06:00:41;;;;;;;9.97;7.90;;;12.70;99.90;;;;;;5064351;28;20573;-83
2021/09/25 06:03:08;;;;;;;11.67;7.37;;;12.70;99.90;;;;;;5068371;28;20455;-82
2021/09/25 06:05:35;;;;;;;9.70;7.60;;;12.70;99.90;;;;;;5075716;28;20526;-82
2021/09/25 06:08:03;;;;;;;13.73;8.40;;;12.70;99.90;;;;;;5071664;28;20465;-83
2021/09/25 06:10:30;;;;;;;16.70;7.67;;;12.70;99.90;;;;;;5076088;28;20450;-83
2021/09/25 06:12:57;;;;;;;10.57;8.00;;;12.70;99.90;;;;;;5070299;28;20471;-83
2021/09/25 06:15:25;;;;;;;11.97;7.93;;;12.80;99.90;;;;;;5084835;28;20456;-83
2021/09/25 06:17:52;;;;;;;8.77;6.70;;;12.90;99.90;;;;;;5067333;28;20764;-82
2021/09/25 06:20:19;;;;;;;10.23;7.37;;;13.00;99.90;;;;;;5067262;28;20495;-82
2021/09/25 06:22:46;;;;;;;10.50;8.17;;;13.00;99.90;;;;;;5068107;28;20567;-82
2021/09/25 06:25:13;;;;;;;12.40;7.93;;;12.90;99.90;;;;;;5066529;28;20513;-83
2021/09/25 06:27:40;;;;;;;10.00;7.80;;;12.90;99.90;;;;;;5064600;28;20510;-82
2021/09/25 06:30:09;;;;;;;13.50;8.10;;;13.00;99.90;;;;;;5048462;28;20475;-83
2021/09/25 06:32:38;;;;;;;10.67;7.30;;;13.10;99.90;;;;;;5067957;28;20422;-80
2021/09/25 06:35:06;;;;;;;10.90;7.57;;;13.30;99.90;;;;;;5081527;28;20451;-80
2021/09/25 06:37:33;;;;;;;10.33;7.60;;;13.50;99.90;;;;;;5058971;28;20437;-81
2021/09/25 06:40:00;;;;;;;10.60;8.00;;;13.50;99.90;;;;;;5058755;28;20486;-79
2021/09/25 06:42:27;;;;;;;8.73;7.20;;;13.70;99.90;;;;;;5070189;28;20449;-80
2021/09/25 06:44:54;;;;;;;11.13;7.73;;;13.80;99.90;;;;;;5058235;28;20521;-79
2021/09/25 06:47:21;;;;;;;9.10;7.20;;;13.90;99.90;;;;;;5058624;28;20945;-80
2021/09/25 06:49:49;;;;;;;11.17;8.87;;;13.90;99.90;;;;;;5061430;28;20470;-80
2021/09/25 06:52:16;;;;;;;12.83;7.67;;;14.10;99.90;;;;;;5078274;28;20465;-77
2021/09/25 06:54:43;;;;;;;13.17;9.07;;;14.10;99.90;;;;;;5082048;28;20436;-80
2021/09/25 06:57:10;;;;;;;13.20;8.33;;;14.10;99.90;;;;;;5052171;28;20463;-81
2021/09/25 06:59:37;;;;;;;14.30;7.80;;;14.10;99.90;;;;;;5037884;28;20549;-80
2021/09/25 07:02:04;;;;;;;12.27;8.67;;;14.20;99.90;;;;;;5057508;28;20495;-80
2021/09/25 07:04:34;;;;;;;10.77;7.80;;;14.30;99.90;;;;;;5058177;28;20467;-80
2021/09/25 07:07:05;;;;;;;11.50;8.17;;;14.40;99.90;;;;;;5057562;28;20433;-82
2021/09/25 07:09:31;;;;;;;12.60;7.40;;;14.60;99.90;;;;;;5058717;28;20463;-80
2021/09/25 07:11:58;;;;;;;10.30;8.27;;;14.70;99.90;;;;;;5057572;28;20863;-80
2021/09/25 07:14:26;;;;;;;12.47;9.23;;;14.90;99.90;;;;;;5060627;28;20544;-87
2021/09/25 07:16:53;;;;;;;11.07;8.67;;;15.00;99.90;;;;;;5061388;28;20437;-82
2021/09/25 07:19:20;;;;;;;13.80;8.73;;;15.00;99.90;;;;;;5059252;28;20961;-83
2021/09/25 07:21:47;;;;;;;11.30;8.93;;;15.10;99.90;;;;;;5059628;28;20538;-84
2021/09/25 07:24:15;;;;;;;13.17;8.60;;;15.30;99.90;;;;;;5059438;28;20487;-82
2021/09/25 07:26:42;;;;;;;10.97;8.10;;;15.40;99.90;;;;;;5056850;28;20663;-81
2021/09/25 07:29:09;;;;;;;11.90;7.77;;;15.50;99.90;;;;;;5064892;28;20465;-81
2021/09/25 07:31:35;;;;;;;11.43;8.20;;;15.60;99.90;;;;;;5072046;28;20476;-81
2021/09/25 07:34:02;;;;;;;11.57;8.00;;;15.70;99.90;;;;;;5078699;28;20419;-81
2021/09/25 07:36:29;;;;;;;15.30;9.53;;;15.80;99.90;;;;;;5078616;28;20540;-81
2021/09/25 07:38:57;;;;;;;9.37;7.27;;;15.90;99.90;;;;;;5079895;28;20968;-81
2021/09/25 07:41:25;;;;;;;14.73;8.30;;;16.10;99.90;;;;;;5074552;28;20476;-80
2021/09/25 07:43:53;;;;;;;9.67;7.33;;;16.10;99.90;;;;;;5081183;28;20408;-81
2021/09/25 07:46:20;;;;;;;9.30;7.53;;;16.20;99.90;;;;;;5079376;28;20822;-80
2021/09/25 07:48:47;;;;;;;11.50;8.20;;;16.30;99.90;;;;;;5077383;28;20474;-79
2021/09/25 07:51:13;;;;;;;15.27;9.63;;;16.30;99.90;;;;;;5068765;28;20511;-81
2021/09/25 07:53:41;;;;;;;13.80;8.90;;;16.30;99.90;;;;;;5065096;28;20458;-78
2021/09/25 07:56:07;;;;;;;11.07;8.77;;;16.50;99.90;;;;;;5044819;28;20893;-78
2021/09/25 07:58:36;;;;;;;14.67;9.20;;;16.30;99.90;;;;;;5051600;28;20428;-77
2021/09/25 08:01:04;;;;;;;13.67;9.13;;;16.30;99.90;;;;;;5070888;28;20485;-77
2021/09/25 08:03:31;;;;;;;11.83;8.30;;;16.40;99.90;;;;;;5059048;28;20455;-79
2021/09/25 08:05:57;;;;;;;10.43;9.03;;;16.70;99.90;;;;;;5059969;28;20697;-78
2021/09/25 08:08:24;;;;;;;14.70;8.70;;;16.70;99.90;;;;;;5056384;28;20451;-79
2021/09/25 08:10:51;;;;;;;15.13;8.90;;;16.70;99.90;;;;;;5054545;28;20489;-80
2021/09/25 08:13:18;;;;;;;12.87;9.70;;;16.80;99.90;;;;;;5085542;28;20556;-78
2021/09/25 08:15:46;;;;;;;10.53;8.93;;;16.90;99.90;;;;;;5083467;28;20521;-78
2021/09/25 08:18:13;;;;;;;14.03;9.27;;;16.90;99.90;;;;;;5079334;28;20479;-81
2021/09/25 08:20:40;;;;;;;12.73;9.40;;;17.00;99.90;;;;;;5077719;28;20572;-80
2021/09/25 08:23:07;;;;;;;11.43;8.73;;;17.00;99.90;;;;;;5071836;28;20483;-79
2021/09/25 08:25:34;;;;;;;13.40;9.13;;;17.20;99.90;;;;;;5059449;28;20455;-79
2021/09/25 08:28:01;;;;;;;12.53;9.03;;;17.30;99.90;;;;;;5076400;28;20452;-79
2021/09/25 08:30:34;;;;;;;10.57;8.47;;;17.30;99.90;;;;;;5074111;28;21384;-82
2021/09/25 08:33:16;;;;;;;10.70;8.00;;;17.40;99.90;;;;;;5057336;28;20458;-79
2021/09/25 08:35:43;;;;;;;12.20;8.27;;;17.50;99.90;;;;;;5059207;28;20411;-79
2021/09/25 08:38:10;;;;;;;10.40;7.90;;;17.60;99.90;;;;;;5070484;28;20458;-80
2021/09/25 08:40:37;;;;;;;10.97;8.17;;;17.60;99.90;;;;;;5075867;28;20557;-79
2021/09/25 08:43:04;;;;;;;11.03;8.30;;;17.70;99.90;;;;;;5057266;28;20429;-79
2021/09/25 08:45:31;;;;;;;12.40;7.50;;;17.80;99.90;;;;;;5057575;28;20516;-81
2021/09/25 08:47:58;;;;;;;12.67;7.93;;;17.90;99.90;;;;;;5056589;28;20505;-81
2021/09/25 08:50:28;;;;;;;11.40;8.53;;;18.00;99.90;;;;;;5057741;28;20478;-77
2021/09/25 08:52:55;;;;;;;10.20;7.33;;;18.10;99.90;;;;;;5052278;28;20435;-79
2021/09/25 08:55:22;;;;;;;11.80;8.10;;;18.20;99.90;;;;;;5072626;28;20889;-80
2021/09/25 08:57:49;;;;;;;9.20;7.40;;;18.30;99.90;;;;;;5075964;28;20447;-79
2021/09/25 09:00:38;;;;;;;10.87;8.10;;;18.40;99.90;;;;;;5078330;28;20537;-78
2021/09/25 09:03:38;;;;;;;9.87;7.60;;;18.50;99.90;;;;;;5037540;28;20844;-78
2021/09/25 09:06:13;;;;;;;12.47;8.40;;;18.60;99.90;;;;;;5046712;28;20523;-79
2021/09/25 09:08:44;;;;;;;16.70;8.33;;;18.70;99.90;;;;;;5061588;28;20443;-78
2021/09/25 09:11:11;;;;;;;10.93;8.13;;;18.80;99.90;;;;;;5064592;28;20477;-80
2021/09/25 09:13:40;;;;;;;12.20;7.67;;;18.80;99.90;;;;;;5081631;28;20893;-81
2021/09/25 09:16:11;;;;;;;11.17;7.83;;;18.90;99.90;;;;;;5078556;28;20461;-81
2021/09/25 09:18:40;;;;;;;8.93;6.67;;;19.00;99.90;;;;;;5070022;28;20478;-82
2021/09/25 09:21:12;;;;;;;12.63;7.27;;;19.10;99.90;;;;;;5057045;28;20549;-81
2021/09/25 09:23:41;;;;;;;12.10;7.90;;;19.20;99.90;;;;;;5055857;28;20849;-81
2021/09/25 09:26:13;;;;;;;14.20;9.57;;;19.20;99.90;;;;;;5057079;28;20495;-80
2021/09/25 09:28:49;;;;;;;9.10;7.60;;;19.20;99.90;;;;;;5056832;28;20959;-79
2021/09/25 09:31:17;;;;;;;12.70;8.00;;;19.30;99.90;;;;;;5063623;28;20482;-80
2021/09/25 09:33:47;;;;;;;9.53;7.70;;;19.40;99.90;;;;;;5075635;28;20521;-80
2021/09/25 09:36:24;;;;;;;10.90;7.67;;;19.40;99.90;;;;;;5058959;28;20438;-79
2021/09/25 09:38:57;;;;;;;10.20;6.77;;;19.50;99.90;;;;;;5057249;28;20452;-80
2021/09/25 09:41:33;;;;;;;9.53;7.73;;;19.70;99.90;;;;;;5070810;28;20557;-81
2021/09/25 09:44:02;;;;;;;11.30;7.67;;;19.70;99.90;;;;;;5071154;28;20447;-81
2021/09/25 09:46:36;;;;;;;10.07;7.40;;;19.70;99.90;;;;;;5060983;28;20484;-81
2021/09/25 09:49:05;;;;;;;10.10;7.80;;;19.80;99.90;;;;;;5060621;28;20443;-80
2021/09/25 09:51:43;;;;;;;9.40;7.03;;;20.00;99.90;;;;;;5062216;28;20451;-79
2021/09/25 09:54:15;;;;;;;11.53;6.50;;;20.20;99.90;;;;;;5059540;28;20444;-79
2021/09/25 09:56:43;;;;;;;8.37;7.10;;;20.20;99.90;;;;;;5059466;28;20523;-79
2021/09/25 09:59:11;;;;;;;10.90;7.30;;;20.40;99.90;;;;;;5061187;28;20567;-82
2021/09/25 10:01:42;;;;;;;9.80;6.20;;;20.40;99.90;;;;;;5068945;28;20475;-80
2021/09/25 10:04:13;;;;;;;9.10;6.73;;;20.50;99.90;;;;;;5081467;28;20787;-79
2021/09/25 10:06:53;;;;;;;11.13;7.13;;;20.50;99.90;;;;;;5080560;28;20931;-79
2021/09/25 10:09:22;;;;;;;8.70;5.43;;;20.60;99.90;;;;;;5065938;28;20568;-79
2021/09/25 10:11:50;;;;;;;8.70;6.60;;;20.70;99.90;;;;;;5075528;22;20501;-80
2021/09/25 10:14:18;;;;;;;11.17;7.50;;;20.80;99.90;;;;;;5042139;28;20451;-81
2021/09/25 10:16:46;;;;;;;12.53;7.40;;;20.80;99.90;;;;;;5040081;28;20512;-80
2021/09/25 10:19:17;;;;;;;10.40;7.47;;;20.90;99.90;;;;;;5040105;28;20464;-80
2021/09/25 10:21:48;;;;;;;11.53;7.40;;;21.00;99.90;;;;;;5040287;28;20481;-80
2021/09/25 10:24:21;;;;;;;8.10;6.80;;;21.10;99.90;;;;;;5040500;28;20520;-80
2021/09/25 10:26:48;;;;;;;9.33;6.13;;;21.20;99.90;;;;;;5038664;28;20455;-80
2021/09/25 10:29:19;;;;;;;6.73;5.47;;;21.30;99.90;;;;;;5039862;28;20460;-80
2021/09/25 10:31:47;;;;;;;9.47;5.43;;;21.30;99.90;;;;;;5039715;28;20506;-80
2021/09/25 10:34:16;;;;;;;6.63;5.43;;;21.40;99.90;;;;;;5041329;28;20544;-80
2021/09/25 10:36:48;;;;;;;9.40;6.20;;;21.50;99.90;;;;;;5043037;28;20537;-80
2021/09/25 10:39:18;;;;;;;7.20;5.67;;;21.60;99.90;;;;;;5041208;28;20465;-80
2021/09/25 10:41:46;;;;;;;7.93;6.60;;;21.60;99.90;;;;;;5040461;28;20492;-81
2021/09/25 10:44:39;;;;;;;9.47;6.10;;;21.70;99.90;;;;;;5040027;28;20485;-81
2021/09/25 10:47:09;;;;;;;7.00;5.50;;;21.80;99.90;;;;;;5036266;28;20458;-81
2021/09/25 10:49:54;;;;;;;9.17;6.60;;;21.90;99.90;;;;;;5041841;28;20778;-81
2021/09/25 10:52:25;;;;;;;7.10;5.80;;;21.90;99.90;;;;;;5040184;28;20520;-81
2021/09/25 10:55:20;;;;;;;8.90;6.23;;;22.00;99.90;;;;;;5039690;28;20455;-81
2021/09/25 10:58:15;;;;;;;7.33;6.20;;;22.10;99.90;;;;;;5039491;28;20626;-81
2021/09/25 11:00:56;;;;;;;8.80;5.77;;;22.10;99.90;;;;;;5020942;28;20449;-82
2021/09/25 11:03:58;;;;;;;6.97;5.60;;;22.10;99.90;;;;;;5039523;28;20873;-81
2021/09/25 11:06:30;;;;;;;7.93;5.50;;;22.20;99.90;;;;;;4957976;29;20464;-81
2021/09/25 11:09:00;;;;;;;7.80;6.00;;;22.20;99.90;;;;;;5025140;28;20508;-81
2021/09/25 11:11:37;;;;;;;8.10;5.40;;;22.30;99.90;;;;;;5039746;28;20560;-81
2021/09/25 11:14:13;;;;;;;8.57;6.40;;;22.30;99.90;;;;;;5041011;28;20878;-81
2021/09/25 11:16:55;;;;;;;8.73;6.63;;;22.40;99.90;;;;;;5031933;28;20525;-81
2021/09/25 11:19:34;;;;;;;8.00;5.87;;;22.40;99.90;;;;;;5038772;28;20823;-81
2021/09/25 11:22:04;;;;;;;6.77;5.47;;;22.40;99.90;;;;;;5037252;28;21021;-81
2021/09/25 11:24:35;;;;;;;6.83;5.30;;;22.40;99.90;;;;;;5038613;28;20434;-81
2021/09/25 11:27:03;;;;;;;7.63;6.23;;;22.50;99.90;;;;;;5038526;28;20512;-81
2021/09/25 11:29:30;;;;;;;6.53;5.73;;;22.60;99.90;;;;;;5037609;28;20465;-81
2021/09/25 11:32:06;;;;;;;10.40;6.53;;;22.60;99.90;;;;;;5034365;28;20462;-81
2021/09/25 11:34:34;;;;;;;8.60;6.10;;;22.70;99.90;;;;;;5019723;28;20465;-81
2021/09/25 11:37:06;;;;;;;8.93;6.23;;;22.70;99.90;;;;;;5029415;28;20449;-81
2021/09/25 11:39:42;;;;;;;6.87;5.37;;;22.80;99.90;;;;;;5038333;28;20438;-81
2021/09/25 11:42:14;;;;;;;8.33;5.37;;;22.80;99.90;;;;;;5037676;28;20492;-81
2021/09/25 11:44:42;;;;;;;7.70;5.53;;;22.90;99.90;;;;;;5037695;28;20529;-81
2021/09/25 11:47:09;;;;;;;8.33;5.20;;;22.80;99.90;;;;;;5037111;28;20445;-81
2021/09/25 11:49:36;;;;;;;7.90;5.40;;;22.90;99.90;;;;;;5036152;28;20454;-81
2021/09/25 11:52:04;;;;;;;7.40;5.60;;;22.80;99.90;;;;;;5036429;28;20479;-81
2021/09/25 11:54:31;;;;;;;7.07;5.40;;;22.90;99.90;;;;;;5038500;28;20449;-81
2021/09/25 11:56:59;;;;;;;6.37;5.20;;;23.00;99.90;;;;;;5036626;28;20481;-81
2021/09/25 11:59:26;;;;;;;6.73;5.70;;;23.00;99.90;;;;;;5037001;28;21001;-81
2021/09/25 12:01:53;;;;;;;7.50;5.83;;;23.00;99.90;;;;;;5037908;28;20493;-81
2021/09/25 12:04:20;;;;;;;8.60;5.57;;;23.00;99.90;;;;;;5037545;28;20454;-81
2021/09/25 12:06:58;;;;;;;8.33;6.00;;;23.10;99.90;;;;;;5035503;28;20519;-81
2021/09/25 12:09:40;;;;;;;7.17;5.80;;;23.20;99.90;;;;;;5018375;28;20824;-81
2021/09/25 12:12:08;;;;;;;6.30;5.20;;;23.20;99.90;;;;;;5022074;28;20490;-80
2021/09/25 12:14:43;;;;;;;6.30;4.83;;;23.30;99.90;;;;;;5036599;28;20453;-81
2021/09/25 12:17:13;;;;;;;5.70;4.30;;;23.40;99.90;;;;;;5036658;28;20591;-81
2021/09/25 12:19:40;;;;;;;7.00;5.33;;;23.40;99.90;;;;;;5037243;28;20448;-81
2021/09/25 12:22:08;;;;;;;7.60;5.00;;;23.50;99.90;;;;;;5036296;28;20544;-80
2021/09/25 12:24:35;;;;;;;7.80;5.20;;;23.50;99.90;;;;;;5039427;28;20465;-80
2021/09/25 12:27:01;;;;;;;6.83;5.13;;;23.50;99.90;;;;;;5040361;28;20830;-81
2021/09/25 12:29:34;;;;;;;6.90;5.20;;;23.60;99.70;;;;;;5043379;28;20560;-80
2021/09/25 12:32:02;;;;;;;7.07;5.63;;;23.60;99.50;;;;;;5047370;28;20559;-80
2021/09/25 12:34:29;;;;;;;6.60;5.20;;;23.70;99.60;;;;;;5037537;28;20485;-81
2021/09/25 12:36:59;;;;;;;7.70;5.20;;;23.70;99.20;;;;;;5035866;28;20548;-81
2021/09/25 12:39:28;;;;;;;9.63;5.77;;;23.70;99.10;;;;;;5017469;28;20454;-81
2021/09/25 12:41:57;;;;;;;6.73;5.13;;;23.70;99.00;;;;;;5033575;28;20485;-81
2021/09/25 12:44:26;;;;;;;12.60;5.60;;;23.80;99.00;;;;;;5036268;28;20522;-81
2021/09/25 12:46:56;;;;;;;9.20;4.70;;;23.80;99.00;;;;;;5035523;28;20536;-81
2021/09/25 12:49:33;;;;;;;7.10;5.50;;;23.80;98.80;;;;;;5035517;28;20453;-81